Gypsum, CO (81637)

4:58 PM MST on December 26, 2014 (GMT -0700)
Porphyry Road | Change Station
CLOSE
Current Station
Personal Weather Station
Location: Gypsum, CO
Elevation: 6286 ft
Nearby Weather Stations

Elev 6286 ft 39.65 °N, 106.96 °W | Updated 4 seconds ago

Light Snow
Light Snow Mist
22.8 °F
Feels Like 15 °F
N
6.0
Wind Variable Wind from NW
Gusts 10.0 mph

Today
High -- | Low -- °F
--% Chance of Precip.
Yesterday
High -- | Low -- °F
Precip. -- in
7:27 AM 4:49 PM
Waxing Crescent, 30% visible
Pressure 29.84 in
Visibility 3.0 miles
Clouds Overcast 3000 ft
Windchill 15 °F
Dew Point 19 °F
Humidity 84%
Rainfall 0.05 in
Snow Depth Not available.
UV 0 out of 12
Pollen .10 out of 12
Air Quality Not available.
Flu Activity Not available.
METAR KEGE 262350Z 26011KT 3SM -SN BR OVC030 M06/M08 A2984

More Conditions Fewer Conditions

Pressure 29.84 in
Visibility 3.0 miles
Clouds Overcast 3000 ft
Windchill 15 °F
Dew Point 19 °F
Humidity 84%
Rainfall 0.05 in
Snow Depth Not available.
UV 0 out of 12
Pollen .10 out of 12
Air Quality Not available.
Flu Activity Not available.
METAR KEGE 262350Z 26011KT 3SM -SN BR OVC030 M06/M08 A2984

More Conditions Fewer Conditions

10-Day Weather Forecast

Almanac

Astronomy

Dec. 26, 2014 Rise Set
Actual Time
Civil Twilight
Nautical Twilight
Astronomical Twilight
Moon
Length of Visible Light
Length of Day
Tomorrow will be .
, % of the Moon is Illuminated

Today's Extremes

State Highs State Lows

Community

WunderPhotos

Upload Photos

1,780,769 photos uploaded!

WunderBlogs® & News

Nearby

Air Quality

  Air Quality AQ Index Pollutant
Not available.

Snow Depth

Station Depth Elevation

Earthquake Activity

City Distance Mag. Time & Date
Minimum magnitude displayed is 2.5.

Coastal Water Temperatures

Place Temperature

Nearby Weather Stations